createdAt,value
2022-07-27T00:02:06.315Z,99.90
2022-07-27T00:04:36.623Z,99.90
2022-07-27T00:07:06.870Z,99.90
2022-07-27T00:09:37.134Z,99.90
2022-07-27T00:12:08.546Z,1.00
2022-07-27T00:14:38.875Z,1.00
2022-07-27T00:17:11.671Z,1.00
2022-07-27T00:19:41.861Z,1.00
2022-07-27T00:22:11.938Z,1.00
2022-07-27T00:24:42.347Z,1.00
2022-07-27T00:27:12.561Z,99.90
2022-07-27T00:29:43.175Z,51.00
2022-07-27T00:32:16.147Z,48.20
2022-07-27T00:34:47.799Z,99.90
2022-07-27T00:37:18.148Z,1.00
2022-07-27T00:39:48.456Z,1.00
2022-07-27T00:42:21.206Z,36.00
2022-07-27T00:44:51.526Z,1.00
2022-07-27T00:47:24.743Z,1.00
2022-07-27T00:49:55.089Z,1.00
2022-07-27T00:52:27.203Z,99.90
2022-07-27T00:54:57.948Z,1.00
2022-07-27T00:57:30.584Z,81.30
2022-07-27T01:00:00.831Z,99.90
2022-07-27T01:02:33.854Z,99.90
2022-07-27T01:05:04.221Z,99.90
2022-07-27T01:07:36.621Z,1.00
2022-07-27T01:10:25.792Z,1.00
2022-07-27T01:12:56.803Z,99.90
2022-07-27T01:15:27.900Z,99.90
2022-07-27T01:18:00.844Z,1.00
2022-07-27T01:20:31.165Z,99.90
2022-07-27T01:23:03.893Z,1.00
2022-07-27T01:25:34.177Z,99.90
2022-07-27T01:28:04.299Z,99.90
2022-07-27T01:30:35.640Z,99.90
2022-07-27T01:33:07.797Z,84.20
2022-07-27T01:35:39.248Z,99.90
2022-07-27T01:38:14.655Z,1.00
2022-07-27T01:40:45.149Z,1.00
2022-07-27T01:43:15.324Z,99.90
2022-07-27T01:45:45.886Z,99.90
2022-07-27T01:48:16.020Z,1.00
2022-07-27T01:50:47.611Z,99.90
2022-07-27T01:53:20.921Z,1.00
2022-07-27T01:55:52.342Z,99.90
2022-07-27T01:58:22.573Z,99.90
2022-07-27T02:00:53.143Z,1.00
2022-07-27T02:03:23.484Z,5.70
2022-07-27T02:05:53.723Z,1.00
2022-07-27T02:08:26.491Z,99.90
2022-07-27T02:11:11.985Z,41.90
2022-07-27T02:13:42.435Z,99.90
2022-07-27T02:16:16.678Z,99.90
2022-07-27T02:18:48.866Z,99.90
2022-07-27T02:21:19.474Z,99.90
2022-07-27T02:23:52.217Z,99.90
2022-07-27T02:26:22.825Z,99.90
2022-07-27T02:28:53.017Z,1.00
2022-07-27T02:31:23.360Z,1.00
2022-07-27T02:33:53.585Z,1.00
2022-07-27T02:36:23.985Z,1.00
2022-07-27T02:38:56.891Z,1.00
2022-07-27T02:41:27.758Z,1.00
2022-07-27T02:43:57.980Z,1.00
2022-07-27T02:46:28.351Z,1.00
2022-07-27T02:48:58.649Z,1.00
2022-07-27T02:51:28.980Z,1.00
2022-07-27T02:56:58.017Z,1.00
2022-07-27T02:59:28.306Z,1.00
2022-07-27T03:01:58.650Z,1.00
2022-07-27T03:04:29.281Z,1.00
2022-07-27T03:06:59.586Z,1.00
2022-07-27T03:09:33.223Z,1.00
2022-07-27T03:12:03.967Z,1.00
2022-07-27T03:14:34.173Z,1.00
2022-07-27T03:17:04.980Z,1.00
2022-07-27T03:19:35.155Z,1.00
2022-07-27T03:22:05.417Z,1.00
2022-07-27T03:24:38.256Z,1.00
2022-07-27T03:27:08.583Z,1.00
2022-07-27T03:29:38.810Z,1.00
2022-07-27T03:32:10.007Z,1.00
2022-07-27T03:34:40.155Z,1.00
2022-07-27T03:37:10.481Z,1.00
2022-07-27T03:39:43.243Z,1.00
2022-07-27T03:42:13.822Z,1.00
2022-07-27T03:44:44.158Z,1.00
2022-07-27T03:47:14.507Z,1.00
2022-07-27T03:49:45.027Z,1.00
2022-07-27T03:52:17.838Z,1.00
2022-07-27T03:54:51.513Z,1.00
2022-07-27T03:57:21.777Z,1.00
2022-07-27T03:59:52.411Z,1.00
2022-07-27T04:02:22.727Z,1.00
2022-07-27T04:04:53.264Z,1.00
2022-07-27T04:07:23.865Z,1.00
2022-07-27T04:09:56.622Z,1.00
2022-07-27T04:12:27.477Z,1.00
2022-07-27T04:14:57.674Z,1.00
2022-07-27T04:17:54.736Z,4.30
2022-07-27T04:20:18.318Z,3.00
2022-07-27T04:22:48.996Z,2.30
2022-07-27T04:25:21.756Z,1.60
2022-07-27T04:27:54.720Z,2.40
2022-07-27T04:30:25.638Z,1.00
2022-07-27T04:32:56.113Z,8.30
2022-07-27T04:35:26.992Z,11.80
2022-07-27T04:37:59.838Z,1.00
2022-07-27T04:40:38.021Z,1.00
2022-07-27T04:43:08.726Z,1.00
2022-07-27T04:45:39.149Z,1.60
2022-07-27T04:48:10.492Z,1.00
2022-07-27T04:50:44.213Z,1.00
2022-07-27T04:53:15.733Z,1.00
2022-07-27T04:55:49.771Z,1.00
2022-07-27T04:58:20.275Z,1.00
2022-07-27T05:00:50.518Z,1.00
2022-07-27T05:03:21.324Z,1.00
2022-07-27T05:05:51.676Z,1.00
2022-07-27T05:08:22.451Z,1.00
2022-07-27T05:10:55.242Z,1.00
2022-07-27T05:13:25.536Z,1.00
2022-07-27T05:15:56.169Z,1.00
2022-07-27T05:18:26.740Z,1.00
2022-07-27T05:20:56.899Z,1.00
2022-07-27T05:23:27.163Z,1.00
2022-07-27T05:26:00.094Z,1.00
2022-07-27T05:28:30.401Z,1.00
2022-07-27T05:31:00.775Z,1.00
2022-07-27T05:33:31.020Z,1.00
2022-07-27T05:36:01.343Z,1.00
2022-07-27T05:38:33.800Z,1.00
2022-07-27T05:41:06.575Z,1.00
2022-07-27T05:43:37.231Z,1.00
2022-07-27T05:46:07.397Z,1.00
2022-07-27T05:48:37.749Z,1.00
2022-07-27T05:51:08.453Z,1.00
2022-07-27T05:53:39.031Z,1.00
2022-07-27T05:56:11.914Z,1.00
2022-07-27T05:58:42.145Z,1.00
2022-07-27T06:01:12.459Z,1.00
2022-07-27T06:03:42.991Z,1.00
2022-07-27T06:06:25.815Z,1.00
2022-07-27T06:08:56.676Z,1.00
2022-07-27T06:11:29.518Z,1.00
2022-07-27T06:13:59.823Z,1.00
2022-07-27T06:16:30.211Z,99.90
2022-07-27T06:19:00.492Z,99.90
2022-07-27T06:21:31.856Z,99.90
2022-07-27T06:24:02.126Z,99.90
2022-07-27T06:26:34.991Z,99.90
2022-07-27T06:29:10.583Z,99.90
2022-07-27T06:31:42.747Z,99.90
2022-07-27T06:34:14.914Z,99.90
2022-07-27T06:36:45.299Z,99.90
2022-07-27T06:39:15.899Z,99.90
2022-07-27T06:41:49.228Z,99.90
2022-07-27T06:44:19.598Z,99.90
2022-07-27T06:46:49.877Z,99.90
2022-07-27T06:49:20.098Z,99.90
2022-07-27T06:51:50.343Z,99.90
2022-07-27T06:54:20.583Z,99.90
2022-07-27T06:56:53.412Z,99.90
2022-07-27T06:59:23.529Z,99.90
2022-07-27T07:01:53.786Z,99.90
2022-07-27T07:04:25.372Z,99.90
2022-07-27T07:07:05.249Z,99.90
2022-07-27T07:09:37.239Z,1.00
2022-07-27T07:12:10.463Z,1.00
2022-07-27T07:14:40.585Z,1.00
2022-07-27T07:17:10.886Z,1.00
2022-07-27T07:19:41.159Z,1.00
2022-07-27T07:22:11.410Z,1.00
2022-07-27T07:24:41.548Z,1.00
2022-07-27T07:27:14.519Z,99.90
2022-07-27T07:29:44.705Z,1.00
2022-07-27T07:32:14.969Z,99.90
2022-07-27T07:34:45.273Z,99.90
2022-07-27T07:37:15.560Z,99.90
2022-07-27T07:39:46.174Z,1.00
2022-07-27T07:42:19.260Z,1.00
2022-07-27T07:44:49.483Z,1.00
2022-07-27T07:47:19.917Z,99.90
2022-07-27T07:49:50.158Z,99.90
2022-07-27T07:52:20.553Z,99.90
2022-07-27T07:54:50.826Z,99.90
2022-07-27T07:57:26.419Z,99.90
2022-07-27T07:59:56.686Z,99.90
2022-07-27T08:02:26.946Z,99.90
2022-07-27T08:04:59.014Z,99.90
2022-07-27T08:07:29.247Z,99.90
2022-07-27T08:09:59.452Z,1.00
2022-07-27T08:12:32.316Z,1.00
2022-07-27T08:15:02.580Z,1.00
2022-07-27T08:17:32.839Z,1.00
2022-07-27T08:20:03.466Z,99.90
2022-07-27T08:22:33.823Z,99.90
2022-07-27T08:25:03.952Z,99.90
2022-07-27T08:27:40.333Z,99.90
2022-07-27T08:30:13.676Z,99.90
2022-07-27T08:32:52.881Z,99.90
2022-07-27T08:35:24.000Z,1.00
2022-07-27T08:37:54.497Z,1.00
2022-07-27T08:40:44.859Z,1.00
2022-07-27T08:43:25.138Z,1.00
2022-07-27T08:46:01.818Z,1.00
2022-07-27T08:48:33.882Z,1.00
2022-07-27T08:51:04.295Z,1.00
2022-07-27T08:53:52.761Z,1.00
2022-07-27T08:56:24.559Z,1.00
2022-07-27T08:58:57.725Z,1.00
2022-07-27T09:01:27.927Z,1.00
2022-07-27T09:03:58.203Z,1.00
2022-07-27T09:06:44.666Z,1.00
2022-07-27T09:09:17.843Z,1.00
2022-07-27T09:12:06.292Z,1.00
2022-07-27T09:14:41.438Z,1.00
2022-07-27T09:20:21.663Z,1.00
2022-07-27T09:22:54.846Z,1.00
2022-07-27T09:26:00.455Z,1.00
2022-07-27T09:28:32.692Z,1.00
2022-07-27T09:31:13.128Z,1.00
2022-07-27T09:33:49.839Z,1.00
2022-07-27T09:36:22.650Z,1.00
2022-07-27T09:39:02.603Z,1.00
2022-07-27T09:41:45.857Z,1.00
2022-07-27T09:44:32.965Z,1.00
2022-07-27T09:47:27.294Z,1.00
2022-07-27T09:50:00.328Z,1.00
2022-07-27T09:52:33.528Z,1.00
2022-07-27T09:55:07.787Z,1.00
2022-07-27T09:57:55.985Z,1.00
2022-07-27T10:00:27.670Z,99.90
2022-07-27T10:03:00.518Z,99.90
2022-07-27T10:05:31.458Z,1.00
2022-07-27T10:08:01.651Z,1.00
2022-07-27T10:10:32.163Z,1.00
2022-07-27T10:13:02.436Z,1.00
2022-07-27T10:15:32.671Z,1.00
2022-07-27T10:18:30.586Z,1.00
2022-07-27T10:21:08.887Z,1.00
2022-07-27T10:23:40.579Z,1.00
2022-07-27T10:26:22.552Z,1.00
2022-07-27T10:28:55.738Z,1.00
2022-07-27T10:31:28.251Z,1.00
2022-07-27T10:34:03.144Z,1.00
2022-07-27T10:36:51.627Z,1.00
2022-07-27T10:39:38.124Z,1.00
2022-07-27T10:42:27.054Z,1.00
2022-07-27T10:45:05.218Z,1.00
2022-07-27T10:47:43.119Z,1.00
2022-07-27T10:50:50.801Z,1.00
2022-07-27T10:53:55.135Z,1.00
2022-07-27T10:56:48.607Z,1.00
2022-07-27T11:00:11.098Z,1.00
2022-07-27T11:02:45.048Z,1.00
2022-07-27T11:05:53.858Z,1.00
2022-07-27T11:08:36.749Z,1.00
2022-07-27T11:11:00.148Z,1.00
2022-07-27T11:13:33.067Z,1.00
2022-07-27T11:16:23.786Z,1.00
2022-07-27T11:19:05.667Z,1.00
2022-07-27T11:21:39.832Z,1.00
2022-07-27T11:24:19.014Z,1.00
2022-07-27T11:26:51.738Z,1.00
2022-07-27T11:29:25.317Z,1.00
2022-07-27T11:32:00.696Z,1.00
2022-07-27T11:34:31.826Z,1.00
2022-07-27T11:37:05.609Z,1.00
2022-07-27T11:42:40.550Z,1.00
2022-07-27T11:45:12.092Z,1.00
2022-07-27T11:47:42.346Z,1.00
2022-07-27T11:50:15.727Z,1.00
2022-07-27T11:52:45.948Z,1.00
2022-07-27T11:55:18.861Z,1.00
2022-07-27T11:57:49.047Z,1.00
2022-07-27T12:00:19.964Z,1.00
2022-07-27T12:02:53.982Z,1.00
2022-07-27T12:08:20.001Z,1.00
2022-07-27T12:11:06.924Z,1.00
2022-07-27T12:13:38.608Z,1.00
2022-07-27T12:16:09.000Z,1.00
2022-07-27T12:18:45.617Z,1.00
2022-07-27T12:21:20.237Z,1.00
2022-07-27T12:23:55.690Z,1.00
2022-07-27T12:26:32.199Z,1.00
2022-07-27T12:29:16.431Z,1.00
2022-07-27T12:31:54.434Z,1.00
2022-07-27T12:34:24.664Z,1.00
2022-07-27T12:39:51.150Z,1.00
2022-07-27T12:42:34.394Z,1.00
2022-07-27T12:45:20.888Z,1.00
2022-07-27T12:47:51.141Z,1.00
2022-07-27T12:50:30.814Z,1.00
2022-07-27T12:53:01.201Z,1.00
2022-07-27T12:55:31.484Z,1.00
2022-07-27T12:58:04.709Z,1.00
2022-07-27T13:00:34.981Z,1.00
2022-07-27T13:03:07.989Z,1.00
2022-07-27T13:05:39.841Z,1.00
2022-07-27T13:08:11.153Z,1.00
2022-07-27T13:10:44.344Z,1.00
2022-07-27T13:13:17.230Z,1.00
2022-07-27T13:15:47.481Z,1.00
2022-07-27T13:18:23.211Z,1.00
2022-07-27T13:20:54.335Z,1.00
2022-07-27T13:23:24.766Z,1.00
2022-07-27T13:25:55.644Z,1.00
2022-07-27T13:28:28.491Z,1.00
2022-07-27T13:30:58.812Z,1.00
2022-07-27T13:33:29.589Z,1.00
2022-07-27T13:36:01.171Z,1.00
2022-07-27T13:38:31.731Z,1.00
2022-07-27T13:41:02.136Z,1.00
2022-07-27T13:43:35.009Z,1.00
2022-07-27T13:46:05.551Z,1.00
2022-07-27T13:48:35.841Z,1.00
2022-07-27T13:51:06.542Z,1.00
2022-07-27T13:53:36.864Z,1.00
2022-07-27T13:56:07.725Z,1.00
2022-07-27T13:58:41.163Z,1.00
2022-07-27T14:01:11.580Z,1.00
2022-07-27T14:03:42.675Z,1.00
2022-07-27T14:06:15.148Z,1.00
2022-07-27T14:08:45.388Z,1.00
2022-07-27T14:11:16.771Z,1.00
2022-07-27T14:13:49.786Z,1.00
2022-07-27T14:16:20.088Z,1.00
2022-07-27T14:18:50.915Z,1.00
2022-07-27T14:21:21.610Z,1.00
2022-07-27T14:23:52.239Z,1.00
2022-07-27T14:26:22.498Z,1.00
2022-07-27T14:28:56.899Z,1.00
2022-07-27T14:31:27.397Z,1.00
2022-07-27T14:33:57.712Z,1.00
2022-07-27T14:36:27.854Z,1.00
2022-07-27T14:38:58.140Z,1.00
2022-07-27T14:41:28.785Z,1.00
2022-07-27T14:44:01.699Z,1.00
2022-07-27T14:46:32.003Z,1.00
2022-07-27T14:49:06.307Z,1.00
2022-07-27T14:51:37.185Z,1.00
2022-07-27T14:54:08.489Z,1.00
2022-07-27T14:56:38.725Z,1.00
2022-07-27T14:59:11.771Z,1.00
2022-07-27T15:01:42.513Z,1.00
2022-07-27T15:04:13.877Z,1.00
2022-07-27T15:06:44.054Z,1.00
2022-07-27T15:09:14.719Z,1.00
2022-07-27T15:11:45.457Z,1.00
2022-07-27T15:14:18.289Z,1.00
2022-07-27T15:16:48.535Z,1.00
2022-07-27T15:19:19.293Z,1.00
2022-07-27T15:21:50.225Z,1.00
2022-07-27T15:24:20.462Z,1.00
2022-07-27T15:26:50.626Z,1.00
2022-07-27T15:29:23.652Z,1.00
2022-07-27T15:31:53.918Z,1.00
2022-07-27T15:34:24.320Z,1.00
2022-07-27T15:36:54.503Z,1.00
2022-07-27T15:39:25.127Z,1.00
2022-07-27T15:41:55.453Z,1.00
2022-07-27T15:44:28.442Z,1.00
2022-07-27T15:46:58.939Z,1.00
2022-07-27T15:49:29.235Z,1.00
2022-07-27T15:51:59.670Z,1.00
2022-07-27T15:54:33.811Z,1.00
2022-07-27T15:57:09.673Z,1.00
2022-07-27T15:59:42.473Z,1.00
2022-07-27T16:02:12.636Z,1.00
2022-07-27T16:04:43.087Z,1.00
2022-07-27T16:07:13.343Z,1.00
2022-07-27T16:09:43.581Z,1.00
2022-07-27T16:12:16.359Z,1.00
2022-07-27T16:14:50.461Z,1.00
2022-07-27T16:17:20.677Z,1.00
2022-07-27T16:19:51.083Z,1.00
2022-07-27T16:22:21.415Z,1.00
2022-07-27T16:24:51.643Z,1.00
2022-07-27T16:27:21.905Z,1.00
2022-07-27T16:29:54.899Z,1.00
2022-07-27T16:32:25.201Z,1.00
2022-07-27T16:34:58.440Z,1.00
2022-07-27T16:37:28.790Z,1.00
2022-07-27T16:39:58.992Z,1.00
2022-07-27T16:42:29.295Z,1.00
2022-07-27T16:45:02.358Z,1.00
2022-07-27T16:47:32.633Z,1.00
2022-07-27T16:50:02.807Z,1.00
2022-07-27T16:55:27.389Z,1.00
2022-07-27T16:57:58.726Z,1.00
2022-07-27T17:00:36.519Z,1.00
2022-07-27T17:03:08.985Z,1.00
2022-07-27T17:05:39.329Z,1.00
2022-07-27T17:08:11.045Z,1.00
2022-07-27T17:10:43.335Z,1.00
2022-07-27T17:13:18.469Z,1.00
2022-07-27T17:15:52.419Z,1.00
2022-07-27T17:18:23.503Z,1.00
2022-07-27T17:20:53.641Z,1.00
2022-07-27T17:23:23.998Z,1.00
2022-07-27T17:25:54.296Z,1.00
2022-07-27T17:28:24.675Z,1.00
2022-07-27T17:30:57.416Z,1.00
2022-07-27T17:33:27.789Z,1.00
2022-07-27T17:35:57.892Z,1.00
2022-07-27T17:38:28.433Z,1.00
2022-07-27T17:40:59.226Z,1.00
2022-07-27T17:43:29.556Z,1.00
2022-07-27T17:46:02.352Z,1.00
2022-07-27T17:48:32.780Z,1.00
2022-07-27T17:51:02.997Z,1.00
2022-07-27T17:53:33.459Z,1.00
2022-07-27T17:56:04.721Z,1.00
2022-07-27T17:58:35.013Z,1.00
2022-07-27T18:01:08.792Z,1.00
2022-07-27T18:03:40.290Z,1.00
2022-07-27T18:06:10.932Z,1.00
2022-07-27T18:08:41.236Z,1.00
2022-07-27T18:11:14.611Z,1.00
2022-07-27T18:13:45.029Z,1.00
2022-07-27T18:16:17.989Z,1.00
2022-07-27T18:18:48.411Z,1.00
2022-07-27T18:21:18.596Z,1.00
2022-07-27T18:23:49.463Z,1.00
2022-07-27T18:26:19.784Z,1.00
2022-07-27T18:28:52.780Z,1.00
2022-07-27T18:31:25.734Z,1.00
2022-07-27T18:33:56.199Z,1.00
2022-07-27T18:36:26.369Z,1.00
2022-07-27T18:38:57.896Z,1.00
2022-07-27T18:41:28.393Z,1.00
2022-07-27T18:43:58.627Z,1.00
2022-07-27T18:46:31.494Z,1.00
2022-07-27T18:49:01.890Z,1.00
2022-07-27T18:51:32.318Z,1.00
2022-07-27T18:54:03.874Z,1.00
2022-07-27T18:56:34.240Z,1.00
2022-07-27T18:59:04.468Z,1.00
2022-07-27T19:01:37.541Z,1.00
2022-07-27T19:04:08.307Z,1.00
2022-07-27T19:06:38.447Z,1.00
2022-07-27T19:09:10.367Z,1.00
2022-07-27T19:11:40.715Z,1.00
2022-07-27T19:14:10.944Z,1.00
2022-07-27T19:16:43.870Z,1.00
2022-07-27T19:19:16.889Z,1.00
2022-07-27T19:21:51.398Z,1.00
2022-07-27T19:24:21.716Z,1.00
2022-07-27T19:26:52.203Z,1.00
2022-07-27T19:29:23.015Z,1.00
2022-07-27T19:31:55.868Z,1.00
2022-07-27T19:34:26.750Z,1.00
2022-07-27T19:36:56.953Z,1.00
2022-07-27T19:39:27.157Z,3.70
2022-07-27T19:42:17.418Z,1.00
2022-07-27T19:44:47.725Z,1.00
2022-07-27T19:47:20.691Z,1.00
2022-07-27T19:49:51.251Z,1.00
2022-07-27T19:52:21.495Z,1.00
2022-07-27T19:54:51.696Z,24.00
2022-07-27T19:57:23.045Z,99.90
2022-07-27T20:02:51.018Z,45.50
2022-07-27T20:05:21.345Z,80.90
2022-07-27T20:07:51.659Z,93.00
2022-07-27T20:10:23.200Z,99.90
2022-07-27T20:12:53.400Z,99.90
2022-07-27T20:15:23.626Z,99.90
2022-07-27T20:17:56.604Z,99.90
2022-07-27T20:20:28.196Z,99.90
2022-07-27T20:22:58.803Z,99.90
2022-07-27T20:25:29.049Z,99.90
2022-07-27T20:27:59.868Z,99.90
2022-07-27T20:30:30.698Z,99.90
2022-07-27T20:33:03.651Z,1.00
2022-07-27T20:35:37.845Z,1.00
2022-07-27T20:38:08.323Z,1.00
2022-07-27T20:40:38.536Z,1.00
2022-07-27T20:43:08.850Z,1.00
2022-07-27T20:45:39.111Z,1.00
2022-07-27T20:48:12.167Z,1.00
2022-07-27T20:50:42.283Z,1.00
2022-07-27T20:53:12.815Z,1.00
2022-07-27T20:55:44.159Z,1.00
2022-07-27T20:58:14.507Z,1.00
2022-07-27T21:00:44.788Z,1.00
2022-07-27T21:03:17.634Z,1.00
2022-07-27T21:05:47.803Z,1.00
2022-07-27T21:08:18.074Z,1.00
2022-07-27T21:10:48.336Z,46.00
2022-07-27T21:13:19.748Z,99.90
2022-07-27T21:15:49.907Z,99.90
2022-07-27T21:18:22.763Z,1.00
2022-07-27T21:20:53.086Z,1.00
2022-07-27T21:23:35.666Z,99.90
2022-07-27T21:26:05.902Z,99.90
2022-07-27T21:28:37.449Z,99.90
2022-07-27T21:31:11.662Z,1.00
2022-07-27T21:33:44.528Z,59.80
2022-07-27T21:36:14.927Z,90.60
2022-07-27T21:38:45.143Z,99.90
2022-07-27T21:41:17.635Z,99.90
2022-07-27T21:43:47.796Z,99.90
2022-07-27T21:46:18.227Z,1.00
2022-07-27T21:48:51.350Z,45.10
2022-07-27T21:51:21.911Z,1.00
2022-07-27T21:53:53.406Z,1.00
2022-07-27T21:56:23.676Z,99.90
2022-07-27T21:58:53.894Z,67.10
2022-07-27T22:01:24.287Z,1.00
2022-07-27T22:03:57.184Z,1.00
2022-07-27T22:06:27.495Z,1.00
2022-07-27T22:08:57.803Z,1.00
2022-07-27T22:11:28.108Z,1.00
2022-07-27T22:13:58.384Z,1.00
2022-07-27T22:16:28.784Z,1.00
2022-07-27T22:19:01.639Z,1.00
2022-07-27T22:21:32.297Z,65.60
2022-07-27T22:24:02.420Z,99.90
2022-07-27T22:26:32.776Z,99.90
2022-07-27T22:29:03.063Z,99.90
2022-07-27T22:31:33.424Z,99.90
2022-07-27T22:34:06.209Z,1.00
2022-07-27T22:36:36.691Z,1.00
2022-07-27T22:39:07.330Z,99.90
2022-07-27T22:41:37.564Z,99.90
2022-07-27T22:44:08.175Z,99.90
2022-07-27T22:46:38.441Z,99.90
2022-07-27T22:49:11.519Z,1.00
2022-07-27T22:51:50.242Z,1.00
2022-07-27T22:54:23.274Z,99.90
2022-07-27T22:56:53.656Z,99.90
2022-07-27T22:59:23.917Z,99.90
2022-07-27T23:01:54.148Z,99.90
2022-07-27T23:04:26.939Z,99.90
2022-07-27T23:06:57.263Z,99.90
2022-07-27T23:09:27.679Z,99.90
2022-07-27T23:11:58.373Z,99.90
2022-07-27T23:14:30.025Z,99.90
2022-07-27T23:17:01.251Z,1.00
2022-07-27T23:19:34.028Z,1.00
2022-07-27T23:22:04.310Z,1.00
2022-07-27T23:24:37.505Z,1.00
2022-07-27T23:27:11.389Z,1.00
2022-07-27T23:29:41.578Z,1.00
2022-07-27T23:32:11.823Z,1.00
2022-07-27T23:34:44.690Z,1.00
2022-07-27T23:37:15.135Z,1.00
2022-07-27T23:39:45.304Z,1.00
2022-07-27T23:45:00.071Z,1.00
2022-07-27T23:47:30.305Z,1.00
2022-07-27T23:50:03.150Z,1.00
2022-07-27T23:52:33.352Z,1.00
2022-07-27T23:55:04.784Z,1.00
2022-07-27T23:57:34.962Z,1.00
